Main page
METAR-TAF:

METAR-TAF

Airports :

Kansas City International Airport

Kansas City, Missouri, United States

latitude: 39-17-50N, longitude: 094-43-50W, elevation: 312 m

Current weather observation

The report was made 57 minutes ago, at 10:53 UTC
Wind 5 kt from the North/Northeast
Temperature 18°C
Humidity 88%
Pressure 1017 hPa
Visibility: 16.1 km
Broken clouds at a height of 13000 ft

METAR: KMCI 231053Z 03005KT 10SM BKN130 18/16 A3004 RMK AO2 SLP162 T01780161

Time: 06:50 (11:50 UTC)

Forecast

The report was made 30 minutes ago, at 11:20 UTC
Forecast valid from 23 at 12 UTC to 24 at 12 UTC
Wind 6 kt from the North
Visibility: 10 km
Broken clouds at a height of 8000 ft
From 23 at 1800 UTC
Wind 8 kt from the North
Visibility: 10 km
Scattered clouds at a height of 25000 ft

TAF: KMCI 231120Z 2312/2412 01006KT P6SM BKN080 FM231800 01008KT P6SM SCT250

Weather observations and forecasts of more than 4000 airports (METAR and TAF reports).

The available stations are represented by yellow and red dots on the map.

Hover mouse over dot to see the name of the station.

Then click to see weather observations and forecasts.

To change the map : click on the green buttons with a black cross to zoom in, on the green button with a dash to zoom out, or on the green arrows for adjacent maps.


METAR-TAF: